createdAt,value
2023-07-12T00:00:50.661Z,8.09
2023-07-12T00:01:50.381Z,8.54
2023-07-12T00:02:50.353Z,9.01
2023-07-12T00:03:50.347Z,9.27
2023-07-12T00:04:50.634Z,9.28
2023-07-12T00:05:50.697Z,9.46
2023-07-12T00:06:50.291Z,8.82
2023-07-12T00:07:50.283Z,9.59
2023-07-12T00:08:50.266Z,9.30
2023-07-12T00:09:50.683Z,8.36
2023-07-12T00:10:50.261Z,8.85
2023-07-12T00:11:50.234Z,8.29
2023-07-12T00:12:50.245Z,8.17
2023-07-12T00:13:50.542Z,8.83
2023-07-12T00:14:50.540Z,9.21
2023-07-12T00:15:50.194Z,8.66
2023-07-12T00:16:50.245Z,8.49
2023-07-12T00:17:50.324Z,8.62
2023-07-12T00:18:50.496Z,8.66
2023-07-12T00:19:50.149Z,8.41
2023-07-12T00:20:50.157Z,9.46
2023-07-12T00:21:50.139Z,9.31
2023-07-12T00:22:50.130Z,9.19
2023-07-12T00:23:50.448Z,9.05
2023-07-12T00:24:50.121Z,8.67
2023-07-12T00:25:50.197Z,8.89
2023-07-12T00:26:50.104Z,8.60
2023-07-12T00:27:50.403Z,9.03
2023-07-12T00:28:50.553Z,8.69
2023-07-12T00:29:50.053Z,9.38
2023-07-12T00:30:50.129Z,8.59
2023-07-12T00:31:50.057Z,8.94
2023-07-12T00:32:50.554Z,8.42
2023-07-12T00:33:50.010Z,8.71
2023-07-12T00:34:50.010Z,8.65
2023-07-12T00:35:50.008Z,8.63
2023-07-12T00:36:49.987Z,8.29
2023-07-12T00:37:50.329Z,8.55
2023-07-12T00:38:49.975Z,8.66
2023-07-12T00:39:49.988Z,7.78
2023-07-12T00:40:49.951Z,7.78
2023-07-12T00:41:50.316Z,7.50
2023-07-12T00:42:50.367Z,8.06
2023-07-12T00:43:49.911Z,7.24
2023-07-12T00:44:49.914Z,7.35
2023-07-12T00:45:49.894Z,6.48
2023-07-12T00:46:50.289Z,7.76
2023-07-12T00:47:49.893Z,7.37
2023-07-12T00:48:49.865Z,6.55
2023-07-12T00:49:49.865Z,7.25
2023-07-12T00:50:49.854Z,7.25
2023-07-12T00:51:50.173Z,7.28
2023-07-12T00:52:49.827Z,6.84
2023-07-12T00:53:49.807Z,7.13
2023-07-12T00:54:49.798Z,7.57
2023-07-12T00:55:50.097Z,7.07
2023-07-12T00:56:49.837Z,7.09
2023-07-12T00:57:49.761Z,6.24
2023-07-12T00:58:49.760Z,6.63
2023-07-12T00:59:49.736Z,6.82
2023-07-12T01:00:50.129Z,7.03
2023-07-12T01:01:49.752Z,6.93
2023-07-12T01:02:49.785Z,6.07
2023-07-12T01:03:49.823Z,6.42
2023-07-12T01:04:49.693Z,6.45
2023-07-12T01:05:50.004Z,6.87
2023-07-12T01:06:49.672Z,6.57
2023-07-12T01:07:49.649Z,7.10
2023-07-12T01:08:49.670Z,7.00
2023-07-12T01:09:49.990Z,6.09
2023-07-12T01:10:50.023Z,6.90
2023-07-12T01:11:49.614Z,6.64
2023-07-12T01:12:49.609Z,6.50
2023-07-12T01:13:49.607Z,6.15
2023-07-12T01:14:49.938Z,6.58
2023-07-12T01:15:49.641Z,6.65
2023-07-12T01:16:49.582Z,6.72
2023-07-12T01:17:49.658Z,6.39
2023-07-12T01:18:49.714Z,5.69
2023-07-12T01:19:49.880Z,6.43
2023-07-12T01:20:49.513Z,6.51
2023-07-12T01:21:49.518Z,6.72
2023-07-12T01:22:49.509Z,6.59
2023-07-12T01:23:49.503Z,6.09
2023-07-12T01:24:49.933Z,6.26
2023-07-12T01:25:49.477Z,6.46
2023-07-12T01:26:49.462Z,6.11
2023-07-12T01:27:49.460Z,6.71
2023-07-12T01:28:49.896Z,5.42
2023-07-12T01:29:49.443Z,6.26
2023-07-12T01:30:49.418Z,5.96
2023-07-12T01:31:49.424Z,5.75
2023-07-12T01:32:49.472Z,6.11
2023-07-12T01:33:49.915Z,5.66
2023-07-12T01:34:49.407Z,6.92
2023-07-12T01:35:49.371Z,5.71
2023-07-12T01:36:49.354Z,6.62
2023-07-12T01:37:49.722Z,5.71
2023-07-12T01:38:49.602Z,5.83
2023-07-12T01:39:49.319Z,6.22
2023-07-12T01:40:49.302Z,5.58
2023-07-12T01:41:49.313Z,5.87
2023-07-12T01:42:49.555Z,5.91
2023-07-12T01:43:49.275Z,5.71
2023-07-12T01:44:49.271Z,5.65
2023-07-12T01:45:49.319Z,5.89
2023-07-12T01:46:49.248Z,5.41
2023-07-12T01:47:49.641Z,5.34
2023-07-12T01:48:49.257Z,5.66
2023-07-12T01:49:49.225Z,5.63
2023-07-12T01:50:49.205Z,5.11
2023-07-12T01:51:49.207Z,6.22
2023-07-12T01:52:49.494Z,5.17
2023-07-12T01:53:49.183Z,5.81
2023-07-12T01:54:49.176Z,5.46
2023-07-12T01:55:49.151Z,5.82
2023-07-12T01:56:49.550Z,5.39
2023-07-12T01:57:49.129Z,5.85
2023-07-12T01:58:49.105Z,5.93
2023-07-12T01:59:49.140Z,5.39
2023-07-12T02:00:49.176Z,6.46
2023-07-12T02:01:49.152Z,5.94
2023-07-12T02:02:49.143Z,5.10
2023-07-12T02:03:49.327Z,6.03
2023-07-12T02:04:49.054Z,6.11
2023-07-12T02:05:49.384Z,5.12
2023-07-12T02:06:49.033Z,5.46
2023-07-12T02:07:49.020Z,5.51
2023-07-12T02:08:48.999Z,5.81
2023-07-12T02:09:48.991Z,6.20
2023-07-12T02:10:49.306Z,5.45
2023-07-12T02:11:48.982Z,5.53
2023-07-12T02:12:48.954Z,5.59
2023-07-12T02:13:48.956Z,7.71
2023-07-12T02:14:48.953Z,6.14
2023-07-12T02:15:49.309Z,5.32
2023-07-12T02:16:48.906Z,5.90
2023-07-12T02:17:49.010Z,6.04
2023-07-12T02:18:49.017Z,5.86
2023-07-12T02:19:49.197Z,5.27
2023-07-12T02:20:48.874Z,5.93
2023-07-12T02:21:48.887Z,5.38
2023-07-12T02:22:48.875Z,5.92
2023-07-12T02:23:48.895Z,5.85
2023-07-12T02:24:49.169Z,6.12
2023-07-12T02:25:48.831Z,5.73
2023-07-12T02:26:48.808Z,6.02
2023-07-12T02:27:48.814Z,5.44
2023-07-12T02:28:49.123Z,5.66
2023-07-12T02:29:49.111Z,6.03
2023-07-12T02:30:48.775Z,5.98
2023-07-12T02:31:48.890Z,5.94
2023-07-12T02:32:48.789Z,5.81
2023-07-12T02:33:49.042Z,6.69
2023-07-12T02:34:48.715Z,6.12
2023-07-12T02:35:48.750Z,6.42
2023-07-12T02:36:48.699Z,5.81
2023-07-12T02:37:48.697Z,5.73
2023-07-12T02:38:48.982Z,6.59
2023-07-12T02:39:48.669Z,5.73
2023-07-12T02:40:48.660Z,6.57
2023-07-12T02:41:48.651Z,6.02
2023-07-12T02:42:48.987Z,5.77
2023-07-12T02:43:49.171Z,5.71
2023-07-12T02:44:48.617Z,6.22
2023-07-12T02:45:48.654Z,6.13
2023-07-12T02:46:48.539Z,6.02
2023-07-12T02:47:48.981Z,6.09
2023-07-12T02:48:48.591Z,5.96
2023-07-12T02:49:48.568Z,6.07
2023-07-12T02:50:48.518Z,6.77
2023-07-12T02:51:48.518Z,6.49
2023-07-12T02:52:48.898Z,6.39
2023-07-12T02:53:48.483Z,5.90
2023-07-12T02:54:48.473Z,5.85
2023-07-12T02:55:48.511Z,6.77
2023-07-12T02:56:48.621Z,6.29
2023-07-12T02:57:48.735Z,5.43
2023-07-12T02:58:48.423Z,6.22
2023-07-12T02:59:48.400Z,6.50
2023-07-12T03:00:48.430Z,5.90
2023-07-12T03:01:48.835Z,5.57
2023-07-12T03:02:48.405Z,5.75
2023-07-12T03:03:48.371Z,6.13
2023-07-12T03:04:48.385Z,6.20
2023-07-12T03:05:48.714Z,5.62
2023-07-12T03:06:48.616Z,6.09
2023-07-12T03:07:48.315Z,6.22
2023-07-12T03:08:48.317Z,6.88
2023-07-12T03:09:48.297Z,6.42
2023-07-12T03:10:48.310Z,6.04
2023-07-12T03:11:48.288Z,6.47
2023-07-12T03:12:48.264Z,6.37
2023-07-12T03:13:48.251Z,6.55
2023-07-12T03:14:48.237Z,6.25
2023-07-12T03:15:48.588Z,6.18
2023-07-12T03:16:48.248Z,6.49
2023-07-12T03:17:48.268Z,6.68
2023-07-12T03:18:48.229Z,6.16
2023-07-12T03:19:48.508Z,6.53
2023-07-12T03:20:48.202Z,6.58
2023-07-12T03:21:48.179Z,6.78
2023-07-12T03:22:48.166Z,6.44
2023-07-12T03:23:48.157Z,6.60
2023-07-12T03:24:48.165Z,6.23
2023-07-12T03:25:48.145Z,6.79
2023-07-12T03:26:48.129Z,6.23
2023-07-12T03:27:48.117Z,6.06
2023-07-12T03:28:48.093Z,6.47
2023-07-12T03:29:48.099Z,6.17
2023-07-12T03:30:48.094Z,6.22
2023-07-12T03:31:48.066Z,6.61
2023-07-12T03:32:48.113Z,6.10
2023-07-12T03:33:48.567Z,7.12
2023-07-12T03:34:48.382Z,6.42
2023-07-12T03:35:48.034Z,6.33
2023-07-12T03:36:48.010Z,7.34
2023-07-12T03:37:48.003Z,7.06
2023-07-12T03:38:48.002Z,7.19
2023-07-12T03:39:47.990Z,6.83
2023-07-12T03:40:47.997Z,7.19
2023-07-12T03:41:47.979Z,6.51
2023-07-12T03:42:47.941Z,6.29
2023-07-12T03:43:47.966Z,7.30
2023-07-12T03:44:47.924Z,7.55
2023-07-12T03:45:47.916Z,6.93
2023-07-12T03:46:47.944Z,6.97
2023-07-12T03:47:48.012Z,6.27
2023-07-12T03:48:48.198Z,6.67
2023-07-12T03:49:47.881Z,7.02
2023-07-12T03:50:47.858Z,7.01
2023-07-12T03:51:47.877Z,7.53
2023-07-12T03:52:47.867Z,7.35
2023-07-12T03:53:47.841Z,6.59
2023-07-12T03:54:47.822Z,7.02
2023-07-12T03:55:47.827Z,7.00
2023-07-12T03:56:47.802Z,6.53
2023-07-12T03:57:48.103Z,7.15
2023-07-12T03:58:47.777Z,7.10
2023-07-12T03:59:47.773Z,6.26
2023-07-12T04:00:47.771Z,7.30
2023-07-12T04:01:47.964Z,6.96
2023-07-12T04:02:47.773Z,5.91
2023-07-12T04:03:47.939Z,6.97
2023-07-12T04:04:47.714Z,6.32
2023-07-12T04:05:47.708Z,6.50
2023-07-12T04:06:47.856Z,6.50
2023-07-12T04:07:47.694Z,6.78
2023-07-12T04:08:47.689Z,6.66
2023-07-12T04:09:47.668Z,6.47
2023-07-12T04:10:47.671Z,6.56
2023-07-12T04:11:47.855Z,6.09
2023-07-12T04:12:47.651Z,5.28
2023-07-12T04:13:47.629Z,6.89
2023-07-12T04:14:47.605Z,5.79
2023-07-12T04:15:47.670Z,5.93
2023-07-12T04:16:47.633Z,5.53
2023-07-12T04:17:47.670Z,6.19
2023-07-12T04:18:47.590Z,5.76
2023-07-12T04:19:47.572Z,5.24
2023-07-12T04:20:47.851Z,6.17
2023-07-12T04:21:47.545Z,5.65
2023-07-12T04:22:47.524Z,5.13
2023-07-12T04:23:47.514Z,5.53
2023-07-12T04:24:47.521Z,5.56
2023-07-12T04:25:47.819Z,5.01
2023-07-12T04:26:47.472Z,4.72
2023-07-12T04:27:47.475Z,4.64
2023-07-12T04:28:47.450Z,5.23
2023-07-12T04:29:47.624Z,4.72
2023-07-12T04:30:47.468Z,5.21
2023-07-12T04:31:47.429Z,4.80
2023-07-12T04:32:47.429Z,3.97
2023-07-12T04:33:47.427Z,5.23
2023-07-12T04:34:47.412Z,4.83
2023-07-12T04:35:47.392Z,5.48
2023-07-12T04:36:47.378Z,4.62
2023-07-12T04:37:47.372Z,4.56
2023-07-12T04:38:47.379Z,5.08
2023-07-12T04:39:47.881Z,4.20
2023-07-12T04:40:47.332Z,4.96
2023-07-12T04:41:47.326Z,5.10
2023-07-12T04:42:47.324Z,4.06
2023-07-12T04:43:47.650Z,4.56
2023-07-12T04:44:47.293Z,4.46
2023-07-12T04:45:47.284Z,4.07
2023-07-12T04:46:47.298Z,4.29
2023-07-12T04:47:47.278Z,4.50
2023-07-12T04:48:47.278Z,4.95
2023-07-12T04:49:47.245Z,4.58
2023-07-12T04:50:47.228Z,4.51
2023-07-12T04:51:47.220Z,4.74
2023-07-12T04:52:47.272Z,4.21
2023-07-12T04:53:47.464Z,4.72
2023-07-12T04:54:47.204Z,4.66
2023-07-12T04:55:47.181Z,4.89
2023-07-12T04:56:47.183Z,4.59
2023-07-12T04:57:47.552Z,4.35
2023-07-12T04:58:47.252Z,4.63
2023-07-12T04:59:47.142Z,4.70
2023-07-12T05:00:47.181Z,4.94
2023-07-12T05:01:47.116Z,5.05
2023-07-12T05:02:47.408Z,5.13
2023-07-12T05:03:47.129Z,4.73
2023-07-12T05:04:47.076Z,6.12
2023-07-12T05:05:47.105Z,5.38
2023-07-12T05:06:47.344Z,5.76
2023-07-12T05:07:47.078Z,6.64
2023-07-12T05:08:47.044Z,7.29
2023-07-12T05:09:47.050Z,4.50
2023-07-12T05:10:47.029Z,4.07
2023-07-12T05:11:47.030Z,4.46
2023-07-12T05:12:47.006Z,4.08
2023-07-12T05:13:46.990Z,3.01
2023-07-12T05:14:46.982Z,3.05
2023-07-12T05:15:46.974Z,2.47
2023-07-12T05:16:47.532Z,2.53
2023-07-12T05:17:47.008Z,2.37
2023-07-12T05:18:46.973Z,1.83
2023-07-12T05:19:46.948Z,2.19
2023-07-12T05:20:47.259Z,2.36
2023-07-12T05:21:47.482Z,2.17
2023-07-12T05:22:46.897Z,2.55
2023-07-12T05:23:46.906Z,1.97
2023-07-12T05:24:46.878Z,2.01
2023-07-12T05:25:47.186Z,1.98
2023-07-12T05:26:46.852Z,1.89
2023-07-12T05:27:46.858Z,1.86
2023-07-12T05:28:46.844Z,2.31
2023-07-12T05:29:46.839Z,1.68
2023-07-12T05:30:46.892Z,2.18
2023-07-12T05:31:46.831Z,1.89
2023-07-12T05:32:46.859Z,1.90
2023-07-12T05:33:46.784Z,1.67
2023-07-12T05:34:47.069Z,1.78
2023-07-12T05:35:47.189Z,1.84
2023-07-12T05:36:46.755Z,1.61
2023-07-12T05:37:46.749Z,2.01
2023-07-12T05:38:46.737Z,1.89
2023-07-12T05:39:46.735Z,2.56
2023-07-12T05:40:46.714Z,1.85
2023-07-12T05:41:46.697Z,1.89
2023-07-12T05:42:46.694Z,1.65
2023-07-12T05:43:47.036Z,2.03
2023-07-12T05:44:47.031Z,2.26
2023-07-12T05:45:46.665Z,2.05
2023-07-12T05:46:46.666Z,2.23
2023-07-12T05:47:46.649Z,1.99
2023-07-12T05:48:46.649Z,2.08
2023-07-12T05:49:46.618Z,2.09
2023-07-12T05:50:46.608Z,2.05
2023-07-12T05:51:46.611Z,2.03
2023-07-12T05:52:48.158Z,1.64
2023-07-12T05:53:46.942Z,2.05
2023-07-12T05:54:46.570Z,1.91
2023-07-12T05:55:46.565Z,1.74
2023-07-12T05:56:46.548Z,1.96
2023-07-12T05:57:46.901Z,1.81
2023-07-12T05:58:46.851Z,1.76
2023-07-12T05:59:46.506Z,2.13
2023-07-12T06:00:46.502Z,1.98
2023-07-12T06:01:46.512Z,2.00
2023-07-12T06:02:46.998Z,2.10
2023-07-12T06:03:46.491Z,1.86
2023-07-12T06:04:46.463Z,2.19
2023-07-12T06:05:46.445Z,1.90
2023-07-12T06:06:46.441Z,1.62
2023-07-12T06:07:46.733Z,1.43
2023-07-12T06:08:46.429Z,1.43
2023-07-12T06:09:46.405Z,1.84
2023-07-12T06:10:46.406Z,1.52
2023-07-12T06:11:46.725Z,1.44
2023-07-12T06:12:46.793Z,1.70
2023-07-12T06:13:46.362Z,1.76
2023-07-12T06:14:46.360Z,1.81
2023-07-12T06:15:46.345Z,1.41
2023-07-12T06:16:46.663Z,1.45
2023-07-12T06:17:46.421Z,1.72
2023-07-12T06:18:46.351Z,1.63
2023-07-12T06:19:46.309Z,1.32
2023-07-12T06:20:46.298Z,1.66
2023-07-12T06:21:46.620Z,1.66
2023-07-12T06:22:46.274Z,1.58
2023-07-12T06:23:46.257Z,1.57
2023-07-12T06:24:46.258Z,1.87
2023-07-12T06:25:46.569Z,1.74
2023-07-12T06:26:46.483Z,1.74
2023-07-12T06:27:46.220Z,1.43
2023-07-12T06:28:46.209Z,1.47
2023-07-12T06:29:46.201Z,1.64
2023-07-12T06:30:46.602Z,1.89
2023-07-12T06:31:46.173Z,1.63
2023-07-12T06:32:46.226Z,1.90
2023-07-12T06:33:46.153Z,1.49
2023-07-12T06:34:46.147Z,1.33
2023-07-12T06:35:46.421Z,2.08
2023-07-12T06:36:46.137Z,2.45
2023-07-12T06:37:46.118Z,1.45
2023-07-12T06:38:46.113Z,1.37
2023-07-12T06:39:46.398Z,1.59
2023-07-12T06:40:46.414Z,1.71
2023-07-12T06:41:46.074Z,1.69
2023-07-12T06:42:46.073Z,1.52
2023-07-12T06:43:46.050Z,1.51
2023-07-12T06:44:46.519Z,1.66
2023-07-12T06:45:46.035Z,1.82
2023-07-12T06:46:46.098Z,1.23
2023-07-12T06:47:46.032Z,1.67
2023-07-12T06:48:46.371Z,1.20
2023-07-12T06:49:46.323Z,1.45
2023-07-12T06:50:45.991Z,1.51
2023-07-12T06:51:45.963Z,1.62
2023-07-12T06:52:45.964Z,1.42
2023-07-12T06:53:46.506Z,1.28
2023-07-12T06:54:45.951Z,1.71
2023-07-12T06:55:45.973Z,1.48
2023-07-12T06:56:45.927Z,1.53
2023-07-12T06:57:45.931Z,1.30
2023-07-12T06:58:46.245Z,1.22
2023-07-12T06:59:45.883Z,1.36
2023-07-12T07:00:45.891Z,1.40
2023-07-12T07:01:45.872Z,1.33
2023-07-12T07:02:46.234Z,1.15
2023-07-12T07:03:46.175Z,1.86
2023-07-12T07:04:45.842Z,1.47
2023-07-12T07:05:45.903Z,1.11
2023-07-12T07:06:45.821Z,1.32
2023-07-12T07:07:46.111Z,1.32
2023-07-12T07:08:45.864Z,1.35
2023-07-12T07:09:45.787Z,1.44
2023-07-12T07:10:45.821Z,1.37
2023-07-12T07:11:45.763Z,1.16
2023-07-12T07:12:46.100Z,1.53
2023-07-12T07:13:45.751Z,1.33
2023-07-12T07:14:45.744Z,1.06
2023-07-12T07:15:45.778Z,1.36
2023-07-12T07:16:46.256Z,1.52
2023-07-12T07:17:46.016Z,1.02
2023-07-12T07:18:45.786Z,1.35
2023-07-12T07:19:45.686Z,1.40
2023-07-12T07:20:46.383Z,1.45
2023-07-12T07:21:46.011Z,1.21
2023-07-12T07:22:45.668Z,1.19
2023-07-12T07:23:47.216Z,1.21
2023-07-12T07:24:45.639Z,1.30
2023-07-12T07:25:45.623Z,1.56
2023-07-12T07:26:45.925Z,1.14
2023-07-12T07:27:45.598Z,1.21
2023-07-12T07:28:45.598Z,1.12
2023-07-12T07:29:45.582Z,1.36
2023-07-12T07:30:46.054Z,1.23
2023-07-12T07:31:46.072Z,1.03
2023-07-12T07:32:45.664Z,1.09
2023-07-12T07:33:45.538Z,0.80
2023-07-12T07:34:45.547Z,1.21
2023-07-12T07:35:46.024Z,1.43
2023-07-12T07:36:45.524Z,0.90
2023-07-12T07:37:45.501Z,1.24
2023-07-12T07:38:45.494Z,1.29
2023-07-12T07:39:45.553Z,1.38
2023-07-12T07:40:45.843Z,1.40
2023-07-12T07:41:45.474Z,0.81
2023-07-12T07:42:45.471Z,1.18
2023-07-12T07:43:45.602Z,1.33
2023-07-12T07:44:45.791Z,1.05
2023-07-12T07:45:45.461Z,1.29
2023-07-12T07:46:45.438Z,1.15
2023-07-12T07:47:45.494Z,0.93
2023-07-12T07:48:45.399Z,1.38
2023-07-12T07:49:45.692Z,1.18
2023-07-12T07:50:45.372Z,0.83
2023-07-12T07:51:45.361Z,1.23
2023-07-12T07:52:45.365Z,1.68
2023-07-12T07:53:45.648Z,1.27
2023-07-12T07:54:45.781Z,1.63
2023-07-12T07:55:45.330Z,1.00
2023-07-12T07:56:45.335Z,1.53
2023-07-12T07:57:45.303Z,1.54
2023-07-12T07:58:45.812Z,1.71
2023-07-12T07:59:47.339Z,1.10
2023-07-12T08:00:47.815Z,1.39
2023-07-12T08:01:45.266Z,1.13
2023-07-12T08:02:45.345Z,1.07
2023-07-12T08:03:45.692Z,1.19
2023-07-12T08:04:45.294Z,1.15
2023-07-12T08:05:45.224Z,2.09
2023-07-12T08:06:45.210Z,1.34
2023-07-12T08:07:45.452Z,1.34
2023-07-12T08:08:45.591Z,1.31
2023-07-12T08:09:45.172Z,1.36
2023-07-12T08:10:45.192Z,1.22
2023-07-12T08:11:45.159Z,1.27
2023-07-12T08:12:45.612Z,1.17
2023-07-12T08:13:45.140Z,1.38
2023-07-12T08:14:45.135Z,1.23
2023-07-12T08:15:45.148Z,0.88
2023-07-12T08:16:45.169Z,1.82
2023-07-12T08:17:45.481Z,1.61
2023-07-12T08:18:45.217Z,1.26
2023-07-12T08:19:45.082Z,1.58
2023-07-12T08:20:45.088Z,1.43
2023-07-12T08:21:45.394Z,1.65
2023-07-12T08:22:45.364Z,2.44
2023-07-12T08:23:45.034Z,1.31
2023-07-12T08:24:45.048Z,1.40
2023-07-12T08:25:45.015Z,1.45
2023-07-12T08:26:51.092Z,1.03
2023-07-12T08:27:45.042Z,1.29
2023-07-12T08:28:44.984Z,1.55
2023-07-12T08:29:44.980Z,1.43
2023-07-12T08:30:44.971Z,1.55
2023-07-12T08:31:45.497Z,1.29
2023-07-12T08:32:44.973Z,1.70
2023-07-12T08:33:44.936Z,1.27
2023-07-12T08:34:44.942Z,1.54
2023-07-12T08:35:49.126Z,1.68
2023-07-12T08:36:45.283Z,1.03
2023-07-12T08:37:44.890Z,1.46
2023-07-12T08:38:44.901Z,1.13
2023-07-12T08:39:44.873Z,1.33
2023-07-12T08:40:45.244Z,1.39
2023-07-12T08:41:44.855Z,1.40
2023-07-12T08:42:44.878Z,1.56
2023-07-12T08:43:44.859Z,1.59
2023-07-12T08:44:45.096Z,1.49
2023-07-12T08:45:45.251Z,1.38
2023-07-12T08:46:44.808Z,1.61
2023-07-12T08:47:44.831Z,1.70
2023-07-12T08:48:44.802Z,1.85
2023-07-12T08:49:45.126Z,1.63
2023-07-12T08:50:44.772Z,1.97
2023-07-12T08:51:45.018Z,1.44
2023-07-12T08:52:44.758Z,1.51
2023-07-12T08:53:44.744Z,2.13
2023-07-12T08:54:45.058Z,1.76
2023-07-12T08:55:44.723Z,1.90
2023-07-12T08:56:44.734Z,2.24
2023-07-12T08:57:44.720Z,1.90
2023-07-12T08:58:45.045Z,1.69
2023-07-12T08:59:45.032Z,1.56
2023-07-12T09:00:44.677Z,1.31
2023-07-12T09:01:44.723Z,1.43
2023-07-12T09:02:44.733Z,1.53
2023-07-12T09:03:45.006Z,1.44
2023-07-12T09:04:44.707Z,1.09
2023-07-12T09:05:44.613Z,1.47
2023-07-12T09:06:44.617Z,1.28
2023-07-12T09:07:44.591Z,1.73
2023-07-12T09:08:44.929Z,1.43
2023-07-12T09:09:44.579Z,1.30
2023-07-12T09:10:44.575Z,1.29
2023-07-12T09:11:44.563Z,1.28
2023-07-12T09:12:44.869Z,1.22
2023-07-12T09:13:44.548Z,1.48
2023-07-12T09:14:44.531Z,1.42
2023-07-12T09:15:44.520Z,1.14
2023-07-12T09:16:44.539Z,1.15
2023-07-12T09:17:44.861Z,1.51
2023-07-12T09:18:44.493Z,1.22
2023-07-12T09:19:44.474Z,1.28
2023-07-12T09:20:44.474Z,1.54
2023-07-12T09:21:44.717Z,1.06
2023-07-12T09:22:44.820Z,1.38
2023-07-12T09:23:44.441Z,1.64
2023-07-12T09:24:44.430Z,1.30
2023-07-12T09:25:44.425Z,1.19
2023-07-12T09:26:44.748Z,1.58
2023-07-12T09:27:44.836Z,1.03
2023-07-12T09:28:44.391Z,1.23
2023-07-12T09:29:44.378Z,1.21
2023-07-12T09:30:44.382Z,1.39
2023-07-12T09:31:44.792Z,1.27
2023-07-12T09:32:44.364Z,1.36
2023-07-12T09:33:44.345Z,1.77
2023-07-12T09:34:44.336Z,1.31
2023-07-12T09:35:44.686Z,1.60
2023-07-12T09:36:44.609Z,1.21
2023-07-12T09:37:44.291Z,1.35
2023-07-12T09:38:44.296Z,1.16
2023-07-12T09:39:44.270Z,1.46
2023-07-12T09:40:44.590Z,1.18
2023-07-12T09:41:44.260Z,1.53
2023-07-12T09:42:44.244Z,1.01
2023-07-12T09:43:44.239Z,1.74
2023-07-12T09:44:44.218Z,1.60
2023-07-12T09:45:59.656Z,1.68
2023-07-12T09:46:44.269Z,1.15
2023-07-12T09:47:44.252Z,1.46
2023-07-12T09:48:44.175Z,1.28
2023-07-12T09:49:44.656Z,1.42
2023-07-12T09:50:44.534Z,1.39
2023-07-12T09:51:44.160Z,1.33
2023-07-12T09:52:44.141Z,1.51
2023-07-12T09:53:44.139Z,1.32
2023-07-12T09:54:44.435Z,1.69
2023-07-12T09:55:44.118Z,1.49
2023-07-12T09:56:44.120Z,1.76
2023-07-12T09:57:44.114Z,1.72
2023-07-12T09:58:44.090Z,1.55
2023-07-12T09:59:44.420Z,1.79
2023-07-12T10:00:44.063Z,2.25
2023-07-12T10:01:44.244Z,1.98
2023-07-12T10:02:44.053Z,1.67
2023-07-12T10:03:44.432Z,1.77
2023-07-12T10:04:44.390Z,1.75
2023-07-12T10:05:44.008Z,2.11
2023-07-12T10:06:44.014Z,2.43
2023-07-12T10:07:43.989Z,2.49
2023-07-12T10:08:44.462Z,1.77
2023-07-12T10:09:43.974Z,2.13
2023-07-12T10:10:43.964Z,2.13
2023-07-12T10:11:43.962Z,2.55
2023-07-12T10:12:43.944Z,2.37
2023-07-12T10:13:44.283Z,2.77
2023-07-12T10:14:43.910Z,2.39
2023-07-12T10:15:43.913Z,2.59
2023-07-12T10:16:43.943Z,3.07
2023-07-12T10:17:44.263Z,3.04
2023-07-12T10:18:44.304Z,2.68
2023-07-12T10:19:43.866Z,2.84
2023-07-12T10:20:43.859Z,3.09
2023-07-12T10:21:43.854Z,2.87
2023-07-12T10:22:44.279Z,2.99
2023-07-12T10:23:43.826Z,2.99
2023-07-12T10:24:43.814Z,3.21
2023-07-12T10:25:43.802Z,2.90
2023-07-12T10:26:43.802Z,3.18
2023-07-12T10:27:44.166Z,3.60
2023-07-12T10:28:43.791Z,3.46
2023-07-12T10:29:43.775Z,3.51
2023-07-12T10:30:43.765Z,3.24
2023-07-12T10:31:44.276Z,3.07
2023-07-12T10:32:43.996Z,2.63
2023-07-12T10:33:43.720Z,2.93
2023-07-12T10:34:43.710Z,2.24
2023-07-12T10:35:43.706Z,2.97
2023-07-12T10:36:44.004Z,3.20
2023-07-12T10:37:43.681Z,2.62
2023-07-12T10:38:43.668Z,2.96
2023-07-12T10:39:44.869Z,3.00
2023-07-12T10:40:43.657Z,2.33
2023-07-12T10:41:43.986Z,3.08
2023-07-12T10:42:43.619Z,3.01
2023-07-12T10:43:43.627Z,2.61
2023-07-12T10:44:43.612Z,2.37
2023-07-12T10:45:43.970Z,2.99
2023-07-12T10:46:44.003Z,2.13
2023-07-12T10:47:43.639Z,2.86
2023-07-12T10:48:43.562Z,2.64
2023-07-12T10:49:43.572Z,2.23
2023-07-12T10:50:44.060Z,2.52
2023-07-12T10:51:45.760Z,2.37
2023-07-12T10:52:43.530Z,2.31
2023-07-12T10:53:43.526Z,2.44
2023-07-12T10:54:43.555Z,1.93
2023-07-12T10:55:43.530Z,2.50
2023-07-12T10:56:43.490Z,1.93
2023-07-12T10:57:43.491Z,2.03
2023-07-12T10:58:43.472Z,2.59
2023-07-12T10:59:43.758Z,2.22
2023-07-12T11:00:43.828Z,1.97
2023-07-12T11:01:43.449Z,1.63
2023-07-12T11:02:43.499Z,1.86
2023-07-12T11:03:43.418Z,1.60
2023-07-12T11:04:43.768Z,1.75
2023-07-12T11:05:43.425Z,2.15
2023-07-12T11:06:43.386Z,2.59
2023-07-12T11:07:43.379Z,2.58
2023-07-12T11:08:43.742Z,3.18
2023-07-12T11:09:46.065Z,3.15
2023-07-12T11:10:43.346Z,3.12
2023-07-12T11:11:43.352Z,3.14
2023-07-12T11:12:43.328Z,3.40
2023-07-12T11:13:43.801Z,2.98
2023-07-12T11:14:43.332Z,2.84
2023-07-12T11:15:43.304Z,3.10
2023-07-12T11:16:43.303Z,2.98
2023-07-12T11:17:43.336Z,2.27
2023-07-12T11:18:43.606Z,2.51
2023-07-12T11:19:43.269Z,2.63
2023-07-12T11:20:43.248Z,2.32
2023-07-12T11:21:43.249Z,2.73
2023-07-12T11:22:43.266Z,2.24
2023-07-12T11:23:43.562Z,2.49
2023-07-12T11:24:43.208Z,2.56
2023-07-12T11:25:43.244Z,2.53
2023-07-12T11:26:43.192Z,2.68
2023-07-12T11:27:43.215Z,2.04
2023-07-12T11:28:43.201Z,2.01
2023-07-12T11:29:43.163Z,2.18
2023-07-12T11:30:43.172Z,2.13
2023-07-12T11:31:43.492Z,2.24
2023-07-12T11:32:43.515Z,1.99
2023-07-12T11:33:43.129Z,1.88
2023-07-12T11:34:43.150Z,2.23
2023-07-12T11:35:43.109Z,2.02
2023-07-12T11:36:43.397Z,2.19
2023-07-12T11:37:43.083Z,2.67
2023-07-12T11:38:43.123Z,1.87
2023-07-12T11:39:43.071Z,1.58
2023-07-12T11:40:43.054Z,1.70
2023-07-12T11:41:43.310Z,1.68
2023-07-12T11:42:43.030Z,2.01
2023-07-12T11:43:43.023Z,2.35
2023-07-12T11:44:43.007Z,1.42
2023-07-12T11:45:43.031Z,1.93
2023-07-12T11:46:43.083Z,1.85
2023-07-12T11:47:43.047Z,1.54
2023-07-12T11:48:42.964Z,1.46
2023-07-12T11:49:42.962Z,1.57
2023-07-12T11:50:42.969Z,1.51
2023-07-12T11:51:42.962Z,1.38
2023-07-12T11:52:42.932Z,1.63
2023-07-12T11:53:42.925Z,1.57
2023-07-12T11:54:42.917Z,1.79
2023-07-12T11:55:43.188Z,2.22
2023-07-12T11:56:42.894Z,1.60
2023-07-12T11:57:42.879Z,1.97
2023-07-12T11:58:42.871Z,1.68
2023-07-12T11:59:43.043Z,1.80
2023-07-12T12:00:43.191Z,1.31
2023-07-12T12:01:42.842Z,1.41
2023-07-12T12:02:42.889Z,1.40
2023-07-12T12:03:42.900Z,1.36
2023-07-12T12:04:43.156Z,1.56
2023-07-12T12:05:42.803Z,1.60
2023-07-12T12:06:42.780Z,1.73
2023-07-12T12:07:42.792Z,1.40
2023-07-12T12:08:42.761Z,1.62
2023-07-12T12:09:43.015Z,1.72
2023-07-12T12:10:42.774Z,1.56
2023-07-12T12:11:42.740Z,1.52
2023-07-12T12:12:42.774Z,1.50
2023-07-12T12:13:43.052Z,1.38
2023-07-12T12:14:43.129Z,1.40
2023-07-12T12:15:42.713Z,1.61
2023-07-12T12:16:42.718Z,1.56
2023-07-12T12:17:42.787Z,1.30
2023-07-12T12:18:43.086Z,1.20
2023-07-12T12:19:43.035Z,1.76
2023-07-12T12:20:43.130Z,1.65
2023-07-12T12:21:42.889Z,1.15
2023-07-12T12:22:42.769Z,2.01
2023-07-12T12:23:42.688Z,1.47
2023-07-12T12:24:42.620Z,1.47
2023-07-12T12:25:42.606Z,1.42
2023-07-12T12:26:42.602Z,1.60
2023-07-12T12:27:42.609Z,1.58
2023-07-12T12:28:43.078Z,1.55
2023-07-12T12:29:42.555Z,1.58
2023-07-12T12:30:42.540Z,1.62
2023-07-12T12:31:42.544Z,1.28
2023-07-12T12:32:42.573Z,1.70
2023-07-12T12:33:42.518Z,1.95
2023-07-12T12:34:42.499Z,1.68
2023-07-12T12:35:42.496Z,1.66
2023-07-12T12:36:42.479Z,1.87
2023-07-12T12:37:42.499Z,1.28
2023-07-12T12:38:42.464Z,1.98
2023-07-12T12:39:42.458Z,1.38
2023-07-12T12:40:42.448Z,1.96
2023-07-12T12:41:42.490Z,1.32
2023-07-12T12:42:42.450Z,1.41
2023-07-12T12:43:42.422Z,1.61
2023-07-12T12:44:42.404Z,1.41
2023-07-12T12:45:42.395Z,1.26
2023-07-12T12:47:42.506Z,1.54
2023-07-12T12:49:11.929Z,1.54
2023-07-12T12:52:34.262Z,1.51
2023-07-12T12:53:48.003Z,1.35
2023-07-12T12:54:09.617Z,1.27
2023-07-12T12:54:45.589Z,1.19
2023-07-12T12:58:06.248Z,1.26
2023-07-12T12:58:33.165Z,1.17
2023-07-12T13:02:42.015Z,1.25
2023-07-12T13:05:50.273Z,1.24
2023-07-12T13:06:40.165Z,1.26
2023-07-12T13:08:45.741Z,1.45
2023-07-12T13:17:49.168Z,1.25
2023-07-12T13:18:25.434Z,1.13
2023-07-12T13:20:13.958Z,1.32
2023-07-12T13:21:14.163Z,1.04
2023-07-12T13:22:13.842Z,1.50
2023-07-12T13:23:22.995Z,1.53
2023-07-12T13:24:13.809Z,0.93
2023-07-12T13:25:13.780Z,1.15
2023-07-12T13:26:13.771Z,1.19
2023-07-12T13:27:13.762Z,1.18
2023-07-12T13:28:13.797Z,1.06
2023-07-12T13:29:13.770Z,1.04
2023-07-12T13:30:13.731Z,1.17
2023-07-12T13:31:13.762Z,1.51
2023-07-12T13:32:13.834Z,1.20
2023-07-12T13:33:13.771Z,0.90
2023-07-12T13:34:17.226Z,1.32
2023-07-12T13:37:13.680Z,0.95
2023-07-12T13:40:20.333Z,0.88
2023-07-12T13:42:43.314Z,1.14
2023-07-12T13:43:31.277Z,1.18